createdAt,value
2024-03-24T00:00:06.189Z,990.41
2024-03-24T00:00:16.162Z,990.43
2024-03-24T00:00:26.228Z,990.40
2024-03-24T00:00:36.233Z,990.41
2024-03-24T00:00:46.166Z,990.39
2024-03-24T00:00:56.297Z,990.39
2024-03-24T00:01:16.171Z,990.40
2024-03-24T00:01:26.149Z,990.38
2024-03-24T00:01:36.234Z,990.39
2024-03-24T00:01:46.156Z,990.38
2024-03-24T00:01:56.245Z,990.37
2024-03-24T00:02:06.231Z,990.34
2024-03-24T00:02:16.157Z,990.35
2024-03-24T00:02:36.136Z,990.33
2024-03-24T00:02:46.138Z,990.36
2024-03-24T00:02:56.158Z,990.33
2024-03-24T00:03:06.240Z,990.36
2024-03-24T00:03:16.120Z,990.38
2024-03-24T00:03:26.123Z,990.35
2024-03-24T00:03:36.139Z,990.35
2024-03-24T00:03:56.258Z,990.37
2024-03-24T00:04:06.297Z,990.40
2024-03-24T00:04:16.160Z,990.32
2024-03-24T00:04:26.181Z,990.34
2024-03-24T00:04:37.810Z,990.35
2024-03-24T00:04:46.171Z,990.37
2024-03-24T00:05:06.274Z,990.35
2024-03-24T00:05:16.902Z,990.34
2024-03-24T00:05:26.183Z,990.36
2024-03-24T00:05:36.110Z,990.34
2024-03-24T00:05:46.142Z,990.34
2024-03-24T00:05:56.896Z,990.34
2024-03-24T00:06:16.138Z,990.38
2024-03-24T00:06:26.224Z,990.36
2024-03-24T00:06:36.120Z,990.36
2024-03-24T00:06:46.184Z,990.37
2024-03-24T00:06:56.123Z,990.36
2024-03-24T00:07:06.124Z,990.37
2024-03-24T00:07:26.097Z,990.37
2024-03-24T00:07:36.159Z,990.32
2024-03-24T00:07:46.114Z,990.35
2024-03-24T00:07:56.118Z,990.32
2024-03-24T00:08:06.146Z,990.35
2024-03-24T00:08:16.244Z,990.33
2024-03-24T00:08:26.143Z,990.35
2024-03-24T00:08:36.932Z,990.32
2024-03-24T00:08:46.186Z,990.34
2024-03-24T00:08:56.214Z,990.35
2024-03-24T00:09:16.146Z,990.33
2024-03-24T00:09:26.164Z,990.43
2024-03-24T00:09:36.165Z,990.35
2024-03-24T00:09:46.092Z,990.31
2024-03-24T00:09:56.095Z,990.35
2024-03-24T00:10:06.167Z,990.33
2024-03-24T00:10:26.108Z,990.32
2024-03-24T00:10:36.147Z,990.33
2024-03-24T00:10:46.097Z,990.34
2024-03-24T00:10:56.167Z,990.30
2024-03-24T00:11:06.110Z,990.32
2024-03-24T00:11:16.103Z,990.29
2024-03-24T00:11:36.152Z,990.32
2024-03-24T00:11:48.942Z,990.36
2024-03-24T00:11:56.212Z,990.40
2024-03-24T00:12:06.118Z,990.38
2024-03-24T00:12:16.209Z,990.33
2024-03-24T00:12:26.097Z,990.37
2024-03-24T00:12:46.087Z,990.38
2024-03-24T00:12:56.106Z,990.34
2024-03-24T00:13:06.082Z,990.41
2024-03-24T00:13:16.104Z,990.39
2024-03-24T00:13:26.196Z,990.38
2024-03-24T00:13:36.157Z,990.37
2024-03-24T00:13:46.087Z,990.41
2024-03-24T00:13:57.007Z,990.37
2024-03-24T00:14:06.108Z,990.36
2024-03-24T00:14:16.103Z,990.36
2024-03-24T00:14:36.097Z,990.30
2024-03-24T00:14:46.106Z,990.34
2024-03-24T00:14:56.134Z,990.38
2024-03-24T00:15:06.075Z,990.35
2024-03-24T00:15:16.171Z,990.33
2024-03-24T00:15:26.265Z,990.34
2024-03-24T00:15:46.087Z,990.33
2024-03-24T00:15:56.297Z,990.35
2024-03-24T00:16:06.116Z,990.39
2024-03-24T00:16:16.109Z,990.35
2024-03-24T00:16:26.186Z,990.36
2024-03-24T00:16:36.062Z,990.43
2024-03-24T00:16:46.096Z,990.36
2024-03-24T00:17:06.143Z,990.33
2024-03-24T00:17:16.179Z,990.38
2024-03-24T00:17:26.980Z,990.37
2024-03-24T00:17:36.954Z,990.33
2024-03-24T00:17:46.078Z,990.35
2024-03-24T00:17:56.091Z,990.36
2024-03-24T00:18:16.114Z,990.37
2024-03-24T00:18:26.101Z,990.38
2024-03-24T00:18:36.072Z,990.33
2024-03-24T00:18:48.892Z,990.35
2024-03-24T00:18:56.054Z,990.31
2024-03-24T00:19:06.065Z,990.31
2024-03-24T00:19:26.054Z,990.30
2024-03-24T00:19:36.073Z,990.32
2024-03-24T00:19:46.056Z,990.27
2024-03-24T00:19:56.113Z,990.32
2024-03-24T00:20:06.061Z,990.29
2024-03-24T00:20:16.143Z,990.25
2024-03-24T00:20:26.061Z,990.31
2024-03-24T00:20:36.140Z,990.28
2024-03-24T00:20:46.057Z,990.27
2024-03-24T00:21:06.071Z,990.30
2024-03-24T00:21:16.040Z,990.27
2024-03-24T00:21:26.033Z,990.27
2024-03-24T00:21:36.152Z,990.28
2024-03-24T00:21:46.037Z,990.30
2024-03-24T00:21:56.306Z,990.30
2024-03-24T00:22:16.139Z,990.26
2024-03-24T00:22:26.051Z,990.24
2024-03-24T00:22:36.116Z,990.29
2024-03-24T00:22:46.047Z,990.27
2024-03-24T00:22:56.156Z,990.23
2024-03-24T00:23:06.104Z,990.25
2024-03-24T00:23:26.054Z,990.26
2024-03-24T00:23:36.059Z,990.27
2024-03-24T00:23:46.051Z,990.24
2024-03-24T00:23:56.067Z,990.21
2024-03-24T00:24:06.041Z,990.28
2024-03-24T00:24:16.063Z,990.22
2024-03-24T00:24:26.058Z,990.26
2024-03-24T00:24:36.899Z,990.26
2024-03-24T00:24:46.119Z,990.23
2024-03-24T00:25:06.033Z,990.24
2024-03-24T00:25:16.057Z,990.22
2024-03-24T00:25:26.055Z,990.23
2024-03-24T00:25:36.061Z,990.26
2024-03-24T00:25:46.054Z,990.29
2024-03-24T00:25:56.133Z,990.27
2024-03-24T00:26:06.130Z,990.25
2024-03-24T00:26:16.110Z,990.23
2024-03-24T00:26:26.083Z,990.25
2024-03-24T00:26:36.903Z,990.21
2024-03-24T00:26:46.895Z,990.21
2024-03-24T00:27:06.015Z,990.19
2024-03-24T00:27:16.988Z,990.23
2024-03-24T00:27:26.052Z,990.27
2024-03-24T00:27:36.022Z,990.24
2024-03-24T00:27:46.041Z,990.26
2024-03-24T00:27:56.139Z,990.21
2024-03-24T00:28:06.067Z,990.27
2024-03-24T00:28:26.047Z,990.24
2024-03-24T00:28:36.020Z,990.23
2024-03-24T00:28:46.887Z,990.19
2024-03-24T00:28:56.032Z,990.19
2024-03-24T00:29:06.056Z,990.16
2024-03-24T00:29:16.170Z,990.19
2024-03-24T00:29:36.049Z,990.23
2024-03-24T00:29:46.026Z,990.22
2024-03-24T00:29:56.884Z,990.21
2024-03-24T00:30:06.019Z,990.22
2024-03-24T00:30:16.090Z,990.23
2024-03-24T00:30:25.997Z,990.20
2024-03-24T00:30:36.065Z,990.20
2024-03-24T00:30:56.203Z,990.21
2024-03-24T00:31:06.075Z,990.20
2024-03-24T00:31:15.991Z,990.24
2024-03-24T00:31:26.002Z,990.22
2024-03-24T00:31:36.048Z,990.17
2024-03-24T00:31:46.025Z,990.21
2024-03-24T00:32:06.059Z,990.25
2024-03-24T00:32:15.998Z,990.20
2024-03-24T00:32:26.008Z,990.20
2024-03-24T00:32:36.479Z,990.20
2024-03-24T00:32:46.002Z,990.23
2024-03-24T00:32:56.039Z,990.22
2024-03-24T00:33:06.178Z,990.22
2024-03-24T00:33:16.000Z,990.20
2024-03-24T00:33:26.933Z,990.26
2024-03-24T00:33:45.999Z,990.22
2024-03-24T00:33:55.995Z,990.21
2024-03-24T00:34:06.079Z,990.21
2024-03-24T00:34:16.032Z,990.22
2024-03-24T00:34:25.987Z,990.19
2024-03-24T00:34:35.988Z,990.23
2024-03-24T00:34:56.084Z,990.19
2024-03-24T00:35:06.080Z,990.20
2024-03-24T00:35:16.008Z,990.20
2024-03-24T00:35:26.011Z,990.21
2024-03-24T00:35:35.972Z,990.23
2024-03-24T00:35:46.067Z,990.20
2024-03-24T00:35:56.085Z,990.20
2024-03-24T00:36:16.005Z,990.22
2024-03-24T00:36:25.969Z,990.20
2024-03-24T00:36:35.974Z,990.15
2024-03-24T00:36:46.012Z,990.21
2024-03-24T00:36:55.990Z,990.21
2024-03-24T00:37:06.017Z,990.20
2024-03-24T00:37:16.133Z,990.20
2024-03-24T00:37:26.001Z,990.20
2024-03-24T00:37:36.001Z,990.18
2024-03-24T00:37:46.041Z,990.17
2024-03-24T00:37:56.079Z,990.24
2024-03-24T00:38:15.980Z,990.17
2024-03-24T00:38:26.951Z,990.21
2024-03-24T00:38:35.997Z,990.18
2024-03-24T00:38:45.957Z,990.16
2024-03-24T00:38:56.175Z,990.18
2024-03-24T00:39:05.967Z,990.11
2024-03-24T00:39:16.046Z,990.20
2024-03-24T00:39:35.996Z,990.20
2024-03-24T00:39:45.992Z,990.11
2024-03-24T00:39:56.012Z,990.10
2024-03-24T00:40:06.204Z,990.14
2024-03-24T00:40:15.957Z,990.16
2024-03-24T00:40:25.960Z,990.15
2024-03-24T00:40:45.958Z,990.13
2024-03-24T00:40:55.979Z,990.16
2024-03-24T00:41:05.976Z,990.15
2024-03-24T00:41:15.994Z,990.14
2024-03-24T00:41:25.967Z,990.14
2024-03-24T00:41:35.992Z,990.11
2024-03-24T00:41:56.175Z,990.13
2024-03-24T00:42:05.983Z,990.12
2024-03-24T00:42:15.950Z,990.08
2024-03-24T00:42:26.030Z,990.14
2024-03-24T00:42:35.965Z,990.13
2024-03-24T00:42:45.957Z,990.14
2024-03-24T00:43:05.946Z,990.11
2024-03-24T00:43:15.970Z,990.12
2024-03-24T00:43:26.085Z,990.05
2024-03-24T00:43:35.940Z,990.16
2024-03-24T00:43:45.962Z,990.06
2024-03-24T00:43:55.946Z,990.09
2024-03-24T00:44:05.999Z,990.11
2024-03-24T00:44:25.946Z,990.10
2024-03-24T00:44:36.901Z,990.11
2024-03-24T00:44:45.939Z,990.09
2024-03-24T00:44:55.945Z,990.16
2024-03-24T00:45:05.941Z,990.14
2024-03-24T00:45:15.967Z,990.08
2024-03-24T00:45:25.988Z,990.11
2024-03-24T00:45:46.008Z,990.10
2024-03-24T00:45:55.962Z,990.09
2024-03-24T00:46:05.980Z,990.07
2024-03-24T00:46:16.039Z,990.07
2024-03-24T00:46:25.988Z,990.04
2024-03-24T00:46:35.953Z,990.10
2024-03-24T00:46:55.945Z,990.09
2024-03-24T00:47:05.952Z,990.03
2024-03-24T00:47:15.928Z,990.03
2024-03-24T00:47:27.038Z,990.06
2024-03-24T00:47:35.976Z,990.06
2024-03-24T00:47:46.166Z,990.07
2024-03-24T00:48:05.958Z,990.02
2024-03-24T00:48:15.924Z,990.03
2024-03-24T00:48:25.939Z,990.05
2024-03-24T00:48:35.934Z,990.09
2024-03-24T00:48:45.976Z,990.07
2024-03-24T00:48:56.095Z,990.03
2024-03-24T00:49:15.997Z,990.04
2024-03-24T00:49:25.907Z,990.04
2024-03-24T00:49:36.018Z,990.01
2024-03-24T00:49:45.926Z,989.98
2024-03-24T00:49:56.940Z,990.02
2024-03-24T00:50:05.943Z,990.03
2024-03-24T00:50:26.959Z,990.00
2024-03-24T00:50:35.950Z,990.00
2024-03-24T00:50:45.921Z,990.00
2024-03-24T00:50:55.970Z,989.96
2024-03-24T00:51:05.956Z,989.98
2024-03-24T00:51:15.932Z,989.99
2024-03-24T00:51:35.947Z,989.97
2024-03-24T00:51:45.929Z,989.92
2024-03-24T00:51:55.947Z,989.93
2024-03-24T00:52:06.031Z,989.95
2024-03-24T00:52:16.029Z,989.93
2024-03-24T00:52:25.929Z,989.94
2024-03-24T00:52:45.900Z,989.96
2024-03-24T00:52:55.930Z,989.93
2024-03-24T00:53:05.899Z,989.95
2024-03-24T00:53:15.997Z,989.96
2024-03-24T00:53:25.970Z,989.88
2024-03-24T00:53:36.916Z,989.92
2024-03-24T00:53:45.954Z,989.96
2024-03-24T00:54:06.000Z,989.93
2024-03-24T00:54:15.915Z,989.94
2024-03-24T00:54:25.924Z,989.91
2024-03-24T00:54:35.918Z,989.94
2024-03-24T00:54:45.923Z,989.98
2024-03-24T00:54:55.923Z,989.94
2024-03-24T00:55:16.059Z,989.88
2024-03-24T00:55:26.394Z,989.90
2024-03-24T00:55:35.904Z,989.93
2024-03-24T00:55:46.460Z,989.93
2024-03-24T00:55:55.901Z,989.92
2024-03-24T00:56:05.887Z,989.89
2024-03-24T00:56:25.954Z,989.93
2024-03-24T00:56:35.888Z,989.92
2024-03-24T00:56:46.015Z,989.98
2024-03-24T00:56:55.893Z,989.90
2024-03-24T00:57:05.889Z,989.94
2024-03-24T00:57:15.893Z,989.88
2024-03-24T00:57:35.889Z,989.91
2024-03-24T00:57:45.903Z,989.90
2024-03-24T00:57:56.028Z,989.94
2024-03-24T00:58:05.907Z,989.91
2024-03-24T00:58:15.983Z,989.93
2024-03-24T00:58:26.004Z,989.95
2024-03-24T00:58:45.871Z,989.92
2024-03-24T00:58:55.870Z,989.94
2024-03-24T00:59:05.928Z,989.92
2024-03-24T00:59:15.866Z,989.91
2024-03-24T00:59:25.876Z,989.91
2024-03-24T00:59:35.988Z,989.89
2024-03-24T00:59:45.883Z,989.88
2024-03-24T00:59:55.901Z,989.90
2024-03-24T01:00:06.038Z,989.92
2024-03-24T01:00:15.974Z,989.88
2024-03-24T01:00:25.893Z,989.88
2024-03-24T01:00:36.554Z,989.82
2024-03-24T01:00:55.884Z,989.93
2024-03-24T01:01:05.891Z,989.90
2024-03-24T01:01:15.883Z,989.91
2024-03-24T01:01:25.859Z,989.90
2024-03-24T01:01:35.930Z,989.93
2024-03-24T01:01:45.857Z,989.90
2024-03-24T01:01:55.916Z,989.89
2024-03-24T01:02:05.923Z,989.89
2024-03-24T01:02:25.932Z,989.83
2024-03-24T01:02:35.934Z,989.89
2024-03-24T01:02:45.895Z,989.91
2024-03-24T01:02:55.872Z,989.90
2024-03-24T01:03:05.863Z,989.91
2024-03-24T01:03:15.866Z,989.87
2024-03-24T01:03:36.049Z,989.85
2024-03-24T01:03:45.883Z,989.84
2024-03-24T01:03:55.878Z,989.84
2024-03-24T01:04:06.577Z,989.83
2024-03-24T01:04:15.848Z,989.88
2024-03-24T01:04:25.846Z,989.86
2024-03-24T01:04:45.904Z,989.83
2024-03-24T01:04:55.843Z,989.81
2024-03-24T01:05:05.863Z,989.80
2024-03-24T01:05:16.561Z,989.82
2024-03-24T01:05:25.863Z,989.84
2024-03-24T01:05:35.883Z,989.85
2024-03-24T01:05:45.912Z,989.80
2024-03-24T01:05:55.850Z,989.82
2024-03-24T01:06:05.864Z,989.77
2024-03-24T01:06:25.852Z,989.75
2024-03-24T01:06:35.838Z,989.73
2024-03-24T01:06:45.891Z,989.76
2024-03-24T01:06:55.834Z,989.75
2024-03-24T01:07:05.878Z,989.79
2024-03-24T01:07:15.921Z,989.82
2024-03-24T01:07:35.866Z,989.80
2024-03-24T01:07:45.836Z,989.82
2024-03-24T01:07:55.868Z,989.76
2024-03-24T01:08:05.838Z,989.80
2024-03-24T01:08:16.426Z,989.80
2024-03-24T01:08:26.469Z,989.74
2024-03-24T01:08:35.885Z,989.74
2024-03-24T01:08:45.878Z,989.76
2024-03-24T01:09:05.866Z,989.76
2024-03-24T01:09:15.831Z,989.80
2024-03-24T01:09:25.906Z,989.74
2024-03-24T01:09:35.909Z,989.77
2024-03-24T01:09:45.843Z,989.75
2024-03-24T01:09:55.858Z,989.76
2024-03-24T01:10:05.908Z,989.77
2024-03-24T01:10:15.916Z,989.79
2024-03-24T01:10:26.034Z,989.79
2024-03-24T01:10:45.855Z,989.77
2024-03-24T01:10:55.863Z,989.76
2024-03-24T01:11:05.836Z,989.76
2024-03-24T01:11:15.832Z,989.77
2024-03-24T01:11:25.855Z,989.78
2024-03-24T01:11:35.819Z,989.78
2024-03-24T01:11:45.854Z,989.79
2024-03-24T01:12:05.845Z,989.77
2024-03-24T01:12:16.451Z,989.76
2024-03-24T01:12:26.432Z,989.79
2024-03-24T01:12:35.897Z,989.76
2024-03-24T01:12:45.839Z,989.75
2024-03-24T01:12:55.806Z,989.79
2024-03-24T01:13:15.818Z,989.79
2024-03-24T01:13:25.810Z,989.82
2024-03-24T01:13:35.903Z,989.74
2024-03-24T01:13:45.863Z,989.77
2024-03-24T01:13:55.884Z,989.75
2024-03-24T01:14:05.813Z,989.81
2024-03-24T01:14:25.840Z,989.83
2024-03-24T01:14:35.946Z,989.78
2024-03-24T01:14:45.976Z,989.79
2024-03-24T01:14:55.841Z,989.74
2024-03-24T01:15:05.807Z,989.79
2024-03-24T01:15:15.833Z,989.74
2024-03-24T01:15:25.813Z,989.77
2024-03-24T01:15:45.864Z,989.77
2024-03-24T01:15:55.801Z,989.76
2024-03-24T01:16:05.817Z,989.75
2024-03-24T01:16:15.844Z,989.78
2024-03-24T01:16:25.857Z,989.74
2024-03-24T01:16:36.448Z,989.73
2024-03-24T01:16:55.817Z,989.71
2024-03-24T01:17:05.858Z,989.73
2024-03-24T01:17:15.839Z,989.75
2024-03-24T01:17:25.842Z,989.71
2024-03-24T01:17:35.842Z,989.72
2024-03-24T01:17:45.835Z,989.71
2024-03-24T01:18:05.791Z,989.70
2024-03-24T01:18:15.803Z,989.67
2024-03-24T01:18:25.845Z,989.73
2024-03-24T01:18:36.450Z,989.74
2024-03-24T01:18:45.965Z,989.72
2024-03-24T01:18:55.804Z,989.69
2024-03-24T01:19:06.027Z,989.72
2024-03-24T01:19:27.086Z,989.74
2024-03-24T01:19:35.826Z,989.72
2024-03-24T01:19:45.799Z,989.68
2024-03-24T01:19:55.795Z,989.73
2024-03-24T01:20:05.781Z,989.71
2024-03-24T01:20:15.792Z,989.75
2024-03-24T01:20:35.827Z,989.68
2024-03-24T01:20:46.441Z,989.68
2024-03-24T01:20:56.442Z,989.66
2024-03-24T01:21:05.801Z,989.69
2024-03-24T01:21:15.773Z,989.72
2024-03-24T01:21:25.774Z,989.66
2024-03-24T01:21:45.790Z,989.70
2024-03-24T01:21:56.447Z,989.71
2024-03-24T01:22:05.788Z,989.70
2024-03-24T01:22:16.500Z,989.72
2024-03-24T01:22:25.812Z,989.67
2024-03-24T01:22:35.792Z,989.72
2024-03-24T01:22:45.780Z,989.71
2024-03-24T01:23:05.786Z,989.70
2024-03-24T01:23:15.777Z,989.68
2024-03-24T01:23:25.776Z,989.64
2024-03-24T01:23:35.813Z,989.68
2024-03-24T01:23:45.939Z,989.68
2024-03-24T01:23:55.780Z,989.68
2024-03-24T01:24:15.822Z,989.65
2024-03-24T01:24:25.763Z,989.68
2024-03-24T01:24:35.765Z,989.68
2024-03-24T01:24:45.778Z,989.67
2024-03-24T01:24:56.447Z,989.67
2024-03-24T01:25:05.852Z,989.66
2024-03-24T01:25:25.759Z,989.64
2024-03-24T01:25:36.413Z,989.65
2024-03-24T01:25:45.772Z,989.69
2024-03-24T01:25:55.795Z,989.68
2024-03-24T01:26:05.814Z,989.64
2024-03-24T01:26:17.998Z,989.62
2024-03-24T01:26:35.764Z,989.67
2024-03-24T01:26:45.776Z,989.65
2024-03-24T01:26:55.768Z,989.65
2024-03-24T01:27:05.849Z,989.66
2024-03-24T01:27:15.756Z,989.65
2024-03-24T01:27:25.762Z,989.67
2024-03-24T01:27:35.762Z,989.67
2024-03-24T01:27:55.879Z,989.68
2024-03-24T01:28:05.885Z,989.68
2024-03-24T01:28:15.758Z,989.62
2024-03-24T01:28:25.758Z,989.64
2024-03-24T01:28:35.742Z,989.68
2024-03-24T01:28:45.753Z,989.61
2024-03-24T01:29:05.795Z,989.64
2024-03-24T01:29:15.756Z,989.65
2024-03-24T01:29:25.924Z,989.66
2024-03-24T01:29:35.767Z,989.66
2024-03-24T01:29:45.776Z,989.67
2024-03-24T01:29:55.757Z,989.64
2024-03-24T01:30:15.732Z,989.65
2024-03-24T01:30:25.760Z,989.62
2024-03-24T01:30:35.729Z,989.66
2024-03-24T01:30:45.763Z,989.60
2024-03-24T01:30:55.767Z,989.60
2024-03-24T01:31:05.753Z,989.60
2024-03-24T01:31:15.944Z,989.57
2024-03-24T01:31:35.737Z,989.60
2024-03-24T01:31:46.489Z,989.60
2024-03-24T01:31:55.755Z,989.62
2024-03-24T01:32:05.763Z,989.58
2024-03-24T01:32:15.765Z,989.67
2024-03-24T01:32:25.776Z,989.63
2024-03-24T01:32:45.810Z,989.58
2024-03-24T01:32:55.742Z,989.57
2024-03-24T01:33:05.722Z,989.56
2024-03-24T01:33:16.398Z,989.57
2024-03-24T01:33:25.743Z,989.56
2024-03-24T01:33:35.725Z,989.56
2024-03-24T01:33:55.730Z,989.55
2024-03-24T01:34:05.728Z,989.55
2024-03-24T01:34:15.743Z,989.50
2024-03-24T01:34:25.718Z,989.55
2024-03-24T01:34:35.962Z,989.52
2024-03-24T01:34:45.763Z,989.53
2024-03-24T01:34:55.726Z,989.55
2024-03-24T01:35:05.725Z,989.55
2024-03-24T01:35:16.407Z,989.56
2024-03-24T01:35:25.820Z,989.53
2024-03-24T01:35:45.893Z,989.55
2024-03-24T01:35:55.733Z,989.52
2024-03-24T01:36:05.738Z,989.55
2024-03-24T01:36:16.521Z,989.50
2024-03-24T01:36:25.725Z,989.55
2024-03-24T01:36:35.735Z,989.56
2024-03-24T01:36:55.738Z,989.49
2024-03-24T01:37:05.747Z,989.50
2024-03-24T01:37:15.708Z,989.53
2024-03-24T01:37:26.525Z,989.58
2024-03-24T01:37:35.730Z,989.53
2024-03-24T01:37:45.711Z,989.52
2024-03-24T01:38:05.731Z,989.49
2024-03-24T01:38:15.709Z,989.51
2024-03-24T01:38:25.712Z,989.49
2024-03-24T01:38:36.403Z,989.55
2024-03-24T01:38:45.737Z,989.53
2024-03-24T01:38:55.707Z,989.53
2024-03-24T01:39:15.731Z,989.52
2024-03-24T01:39:25.755Z,989.55
2024-03-24T01:39:35.893Z,989.48
2024-03-24T01:39:45.731Z,989.46
2024-03-24T01:39:55.712Z,989.50
2024-03-24T01:40:05.722Z,989.48
2024-03-24T01:40:25.744Z,989.46
2024-03-24T01:40:35.710Z,989.50
2024-03-24T01:40:45.703Z,989.47
2024-03-24T01:40:55.812Z,989.48
2024-03-24T01:41:05.702Z,989.50
2024-03-24T01:41:15.851Z,989.49
2024-03-24T01:41:36.406Z,989.51
2024-03-24T01:41:45.713Z,989.49
2024-03-24T01:41:55.687Z,989.47
2024-03-24T01:42:05.708Z,989.50
2024-03-24T01:42:15.705Z,989.50
2024-03-24T01:42:25.705Z,989.49
2024-03-24T01:42:46.420Z,989.48
2024-03-24T01:42:55.682Z,989.47
2024-03-24T01:43:05.715Z,989.45
2024-03-24T01:43:15.718Z,989.44
2024-03-24T01:43:25.732Z,989.45
2024-03-24T01:43:35.716Z,989.46
2024-03-24T01:43:55.710Z,989.44
2024-03-24T01:44:05.682Z,989.46
2024-03-24T01:44:15.690Z,989.46
2024-03-24T01:44:25.677Z,989.42
2024-03-24T01:44:35.709Z,989.42
2024-03-24T01:44:45.697Z,989.43
2024-03-24T01:44:55.742Z,989.45
2024-03-24T01:45:05.770Z,989.46
2024-03-24T01:45:15.710Z,989.41
2024-03-24T01:45:36.436Z,989.44
2024-03-24T01:45:46.484Z,989.44
2024-03-24T01:45:55.684Z,989.46
2024-03-24T01:46:05.707Z,989.46
2024-03-24T01:46:15.678Z,989.47
2024-03-24T01:46:25.828Z,989.40
2024-03-24T01:46:45.773Z,989.42
2024-03-24T01:46:55.793Z,989.41
2024-03-24T01:47:05.716Z,989.44
2024-03-24T01:47:15.687Z,989.42
2024-03-24T01:47:25.726Z,989.42
2024-03-24T01:47:35.718Z,989.38
2024-03-24T01:47:46.410Z,989.43
2024-03-24T01:48:05.658Z,989.43
2024-03-24T01:48:15.685Z,989.41
2024-03-24T01:48:25.698Z,989.44
2024-03-24T01:48:35.656Z,989.40
2024-03-24T01:48:45.658Z,989.46
2024-03-24T01:48:55.698Z,989.44
2024-03-24T01:49:05.669Z,989.44
2024-03-24T01:49:25.696Z,989.39
2024-03-24T01:49:35.662Z,989.44
2024-03-24T01:49:45.767Z,989.41
2024-03-24T01:49:56.441Z,989.41
2024-03-24T01:50:05.972Z,989.43
2024-03-24T01:50:15.664Z,989.43
2024-03-24T01:50:35.646Z,989.40
2024-03-24T01:50:45.695Z,989.39
2024-03-24T01:50:55.668Z,989.44
2024-03-24T01:51:05.663Z,989.45
2024-03-24T01:51:15.659Z,989.43
2024-03-24T01:51:25.639Z,989.39
2024-03-24T01:51:45.779Z,989.43
2024-03-24T01:51:55.661Z,989.39
2024-03-24T01:52:05.745Z,989.42
2024-03-24T01:52:15.651Z,989.42
2024-03-24T01:52:25.651Z,989.40
2024-03-24T01:52:35.643Z,989.38
2024-03-24T01:52:55.664Z,989.40
2024-03-24T01:53:05.648Z,989.41
2024-03-24T01:53:15.686Z,989.40
2024-03-24T01:53:25.655Z,989.41
2024-03-24T01:53:35.643Z,989.39
2024-03-24T01:53:45.725Z,989.39
2024-03-24T01:54:06.474Z,989.42
2024-03-24T01:54:15.629Z,989.43
2024-03-24T01:54:25.650Z,989.42
2024-03-24T01:54:35.669Z,989.46
2024-03-24T01:54:45.636Z,989.43
2024-03-24T01:54:55.659Z,989.41
2024-03-24T01:55:15.706Z,989.45
2024-03-24T01:55:25.629Z,989.41
2024-03-24T01:55:35.644Z,989.45
2024-03-24T01:55:45.657Z,989.48
2024-03-24T01:55:55.647Z,989.43
2024-03-24T01:56:05.671Z,989.43
2024-03-24T01:56:15.785Z,989.46
2024-03-24T01:56:35.627Z,989.46
2024-03-24T01:56:45.619Z,989.46
2024-03-24T01:56:55.644Z,989.42
2024-03-24T01:57:05.663Z,989.47
2024-03-24T01:57:15.663Z,989.46
2024-03-24T01:57:25.645Z,989.45
2024-03-24T01:57:45.616Z,989.44
2024-03-24T01:57:55.649Z,989.44
2024-03-24T01:58:05.724Z,989.46
2024-03-24T01:58:16.423Z,989.44
2024-03-24T01:58:25.648Z,989.43
2024-03-24T01:58:35.625Z,989.47
2024-03-24T01:58:45.640Z,989.47
2024-03-24T01:59:05.659Z,989.47
2024-03-24T01:59:15.706Z,989.46
2024-03-24T01:59:26.407Z,989.42
2024-03-24T01:59:35.615Z,989.48
2024-03-24T01:59:45.623Z,989.43
2024-03-24T01:59:56.453Z,989.47
2024-03-24T02:00:16.448Z,989.42
2024-03-24T02:00:25.710Z,989.47
2024-03-24T02:00:35.644Z,989.37
2024-03-24T02:00:45.615Z,989.42
2024-03-24T02:00:55.614Z,989.42
2024-03-24T02:01:05.665Z,989.47
2024-03-24T02:01:25.622Z,989.42
2024-03-24T02:01:35.625Z,989.47
2024-03-24T02:01:45.619Z,989.44
2024-03-24T02:01:55.605Z,989.45
2024-03-24T02:02:05.596Z,989.48
2024-03-24T02:02:15.631Z,989.44
2024-03-24T02:02:26.518Z,989.46
2024-03-24T02:02:35.628Z,989.43
2024-03-24T02:02:45.640Z,989.43
2024-03-24T02:03:05.617Z,989.42
2024-03-24T02:03:15.593Z,989.46
2024-03-24T02:03:25.603Z,989.42
2024-03-24T02:03:35.609Z,989.48
2024-03-24T02:03:45.630Z,989.49
2024-03-24T02:03:55.604Z,989.46
2024-03-24T02:04:15.597Z,989.45
2024-03-24T02:04:25.612Z,989.46
2024-03-24T02:04:36.427Z,989.47
2024-03-24T02:04:45.611Z,989.46
2024-03-24T02:04:55.595Z,989.46
2024-03-24T02:05:05.629Z,989.47
2024-03-24T02:05:25.612Z,989.46
2024-03-24T02:05:35.685Z,989.45
2024-03-24T02:05:45.587Z,989.48
2024-03-24T02:05:55.587Z,989.48
2024-03-24T02:06:05.796Z,989.48
2024-03-24T02:06:15.589Z,989.46
2024-03-24T02:06:27.194Z,989.44
2024-03-24T02:06:35.672Z,989.48
2024-03-24T02:06:45.587Z,989.47
2024-03-24T02:06:55.589Z,989.48
2024-03-24T02:07:05.599Z,989.47
2024-03-24T02:07:15.591Z,989.50
2024-03-24T02:07:35.619Z,989.48
2024-03-24T02:07:45.653Z,989.46
2024-03-24T02:07:56.484Z,989.49
2024-03-24T02:08:05.574Z,989.50
2024-03-24T02:08:15.632Z,989.47
2024-03-24T02:08:25.621Z,989.46
2024-03-24T02:08:35.642Z,989.48
2024-03-24T02:08:55.605Z,989.51
2024-03-24T02:09:05.591Z,989.46
2024-03-24T02:09:15.586Z,989.46
2024-03-24T02:09:25.595Z,989.50
2024-03-24T02:09:36.424Z,989.45
2024-03-24T02:09:45.576Z,989.44
2024-03-24T02:09:55.648Z,989.46
2024-03-24T02:10:15.585Z,989.46
2024-03-24T02:10:25.610Z,989.41
2024-03-24T02:10:35.578Z,989.44
2024-03-24T02:10:45.645Z,989.49
2024-03-24T02:10:55.712Z,989.46
2024-03-24T02:11:05.588Z,989.45
2024-03-24T02:11:16.419Z,989.47
2024-03-24T02:11:35.589Z,989.44
2024-03-24T02:11:45.569Z,989.42
2024-03-24T02:11:55.558Z,989.46
2024-03-24T02:12:05.563Z,989.41
2024-03-24T02:12:15.585Z,989.44
2024-03-24T02:12:25.558Z,989.45
2024-03-24T02:12:35.616Z,989.46
2024-03-24T02:12:45.594Z,989.44
2024-03-24T02:12:55.729Z,989.45
2024-03-24T02:13:05.570Z,989.45
2024-03-24T02:13:25.545Z,989.45
2024-03-24T02:13:35.561Z,989.46
2024-03-24T02:13:45.547Z,989.44
2024-03-24T02:13:55.557Z,989.38
2024-03-24T02:14:05.567Z,989.44
2024-03-24T02:14:15.661Z,989.43
2024-03-24T02:14:25.640Z,989.35
2024-03-24T02:14:35.568Z,989.38
2024-03-24T02:14:45.569Z,989.37
2024-03-24T02:14:55.606Z,989.32
2024-03-24T02:15:05.559Z,989.41
2024-03-24T02:15:25.580Z,989.34
2024-03-24T02:15:35.540Z,989.39
2024-03-24T02:15:45.554Z,989.36
2024-03-24T02:15:55.610Z,989.33
2024-03-24T02:16:05.648Z,989.32
2024-03-24T02:16:15.538Z,989.35
2024-03-24T02:16:25.576Z,989.32
2024-03-24T02:16:45.544Z,989.31
2024-03-24T02:16:56.407Z,989.31
2024-03-24T02:17:05.532Z,989.34
2024-03-24T02:17:15.551Z,989.30
2024-03-24T02:17:25.550Z,989.35
2024-03-24T02:17:35.540Z,989.32
2024-03-24T02:17:46.092Z,989.33
2024-03-24T02:18:05.526Z,989.32
2024-03-24T02:18:15.536Z,989.28
2024-03-24T02:18:25.596Z,989.29
2024-03-24T02:18:35.527Z,989.25
2024-03-24T02:18:46.660Z,989.29
2024-03-24T02:18:55.542Z,989.29
2024-03-24T02:19:06.447Z,989.28
2024-03-24T02:19:15.543Z,989.30
2024-03-24T02:19:25.607Z,989.30
2024-03-24T02:19:45.547Z,989.34
2024-03-24T02:19:55.525Z,989.30
2024-03-24T02:20:05.546Z,989.29
2024-03-24T02:20:15.532Z,989.30
2024-03-24T02:20:25.518Z,989.31
2024-03-24T02:20:35.612Z,989.26
2024-03-24T02:20:55.531Z,989.24
2024-03-24T02:21:05.637Z,989.28
2024-03-24T02:21:15.631Z,989.29
2024-03-24T02:21:25.571Z,989.29
2024-03-24T02:21:35.568Z,989.29
2024-03-24T02:21:45.520Z,989.30
2024-03-24T02:22:05.574Z,989.29
2024-03-24T02:22:15.514Z,989.25
2024-03-24T02:22:25.509Z,989.23
2024-03-24T02:22:35.594Z,989.28
2024-03-24T02:22:45.648Z,989.23